KHEZ/HEZ METAR and TAF weather

Enter ICAO airport designator
Station Type Date Time Source
KHEZ METAR 2019/05/25 08:56 UTC NOAA

KHEZ 250856Z AUTO 00000KT 10SM CLR 22/21 A3010 RMK AO2 SLP192 T02170206 50004


Station Type Date Time Source
KHEZ Decoded METAR 2019/05/25 08:56 UTC NOAA

Natchez, Hardy-Anders Field Natchez-Adams County Airport, MS, United States (KHEZ) 31-37N 091-18W
May 25, 2019 - 04:56 AM EDT / 2019.05.25 0856 UTC
Wind: Calm:0
Visibility: 10 mile(s):0
Sky conditions: clear
Temperature: 71.1 F (21.7 C)
Dew Point: 69.1 F (20.6 C)
Relative Humidity: 93%
Pressure (altimeter): 30.1 in. Hg (1019 hPa)
Pressure tendency: 0.01 inches (0.4 hPa) higher than three hours ago
ob: KHEZ 250856Z AUTO 00000KT 10SM CLR 22/21 A3010 RMK AO2 SLP192 T02170206 50004
cycle: 9

Station Type Date Time Source
KHEZ TAF UTC NOAA

Error!

Example: see airport list